Anaktuvuk Pass, Alaska
Current Conditions -  °F | °C
As of 12:36 PM on Friday 19 Dec 2014 (Local Time) from PAKP Reporting Station
Overcast Overcast  
Wind Chill: -8°   Ceiling: 400
Heat Index:   Visibility: 3mi
Dew Point: -2°   Wind: 6mph
Humidity: 78%   Direction: 40°NE
Pressure: 29.38"   Gusts: NA
Location:  68.14°N, 151.74°W
Report Text: PAKP 192136Z AUTO 04005KT 3SM OVC004 M16/M19 A2938 RMK AO1
Loading
Personal Weather Stations






























Interactive Weather Map New forecast layout! Learn more

10-Day Weather Forecast

Advertisements
Track Severe Weather on mobile